sensor_id;sensor_type;location;lat;lon;timestamp;P1;durP1;ratioP1;P2;durP2;ratioP2
72949;SDS011;62720;45.710;9.590;2022-11-02T00:01:29;9.43;;;3.97;;
72949;SDS011;62720;45.710;9.590;2022-11-02T00:03:57;14.55;;;4.40;;
72949;SDS011;62720;45.710;9.590;2022-11-02T00:06:23;13.25;;;4.28;;
72949;SDS011;62720;45.710;9.590;2022-11-02T00:08:48;13.57;;;4.43;;
72949;SDS011;62720;45.710;9.590;2022-11-02T00:11:13;12.50;;;4.10;;
72949;SDS011;62720;45.710;9.590;2022-11-02T00:13:39;13.38;;;4.72;;
72949;SDS011;62720;45.710;9.590;2022-11-02T00:16:05;12.90;;;4.15;;
72949;SDS011;62720;45.710;9.590;2022-11-02T00:18:32;14.90;;;4.68;;
72949;SDS011;62720;45.710;9.590;2022-11-02T00:20:58;17.95;;;4.60;;
72949;SDS011;62720;45.710;9.590;2022-11-02T00:23:23;11.50;;;4.50;;
72949;SDS011;62720;45.710;9.590;2022-11-02T00:25:49;11.90;;;4.43;;
72949;SDS011;62720;45.710;9.590;2022-11-02T00:28:16;14.23;;;4.13;;
72949;SDS011;62720;45.710;9.590;2022-11-02T00:30:42;14.65;;;4.13;;
72949;SDS011;62720;45.710;9.590;2022-11-02T00:33:07;12.10;;;4.22;;
72949;SDS011;62720;45.710;9.590;2022-11-02T00:35:33;11.80;;;4.30;;
72949;SDS011;62720;45.710;9.590;2022-11-02T00:37:58;12.32;;;4.50;;
72949;SDS011;62720;45.710;9.590;2022-11-02T00:40:23;16.00;;;4.22;;
72949;SDS011;62720;45.710;9.590;2022-11-02T00:42:49;13.15;;;3.78;;
72949;SDS011;62720;45.710;9.590;2022-11-02T00:45:14;14.13;;;4.07;;
72949;SDS011;62720;45.710;9.590;2022-11-02T00:47:40;10.77;;;3.58;;
72949;SDS011;62720;45.710;9.590;2022-11-02T00:50:05;13.05;;;4.90;;
72949;SDS011;62720;45.710;9.590;2022-11-02T00:52:31;10.55;;;4.07;;
72949;SDS011;62720;45.710;9.590;2022-11-02T00:54:56;11.50;;;3.97;;
72949;SDS011;62720;45.710;9.590;2022-11-02T00:57:21;11.47;;;3.37;;
72949;SDS011;62720;45.710;9.590;2022-11-02T00:59:47;11.32;;;4.28;;
72949;SDS011;62720;45.710;9.590;2022-11-02T01:02:12;9.45;;;4.00;;
72949;SDS011;62720;45.710;9.590;2022-11-02T01:04:37;11.50;;;3.90;;
72949;SDS011;62720;45.710;9.590;2022-11-02T01:07:03;11.98;;;4.22;;
72949;SDS011;62720;45.710;9.590;2022-11-02T01:09:28;13.05;;;4.10;;
72949;SDS011;62720;45.710;9.590;2022-11-02T01:11:53;12.27;;;3.80;;
72949;SDS011;62720;45.710;9.590;2022-11-02T01:14:19;13.13;;;3.65;;
72949;SDS011;62720;45.710;9.590;2022-11-02T01:16:44;15.52;;;3.75;;
72949;SDS011;62720;45.710;9.590;2022-11-02T01:19:10;13.73;;;3.65;;
72949;SDS011;62720;45.710;9.590;2022-11-02T01:21:35;12.93;;;4.35;;
72949;SDS011;62720;45.710;9.590;2022-11-02T01:24:00;12.20;;;3.45;;
72949;SDS011;62720;45.710;9.590;2022-11-02T01:26:26;12.68;;;3.80;;
72949;SDS011;62720;45.710;9.590;2022-11-02T01:28:52;11.63;;;3.50;;
72949;SDS011;62720;45.710;9.590;2022-11-02T01:31:17;11.32;;;4.00;;
72949;SDS011;62720;45.710;9.590;2022-11-02T01:33:43;12.70;;;3.88;;
72949;SDS011;62720;45.710;9.590;2022-11-02T01:36:09;11.98;;;4.15;;
72949;SDS011;62720;45.710;9.590;2022-11-02T01:38:34;12.93;;;3.58;;
72949;SDS011;62720;45.710;9.590;2022-11-02T01:41:00;14.23;;;3.72;;
72949;SDS011;62720;45.710;9.590;2022-11-02T01:43:26;13.57;;;4.17;;
72949;SDS011;62720;45.710;9.590;2022-11-02T01:46:04;18.38;;;3.85;;
72949;SDS011;62720;45.710;9.590;2022-11-02T01:48:38;9.65;;;3.60;;
72949;SDS011;62720;45.710;9.590;2022-11-02T01:51:07;12.88;;;3.35;;
72949;SDS011;62720;45.710;9.590;2022-11-02T01:53:33;13.02;;;4.00;;
72949;SDS011;62720;45.710;9.590;2022-11-02T01:55:59;12.15;;;3.70;;
72949;SDS011;62720;45.710;9.590;2022-11-02T01:58:25;13.15;;;3.80;;
72949;SDS011;62720;45.710;9.590;2022-11-02T02:00:51;13.73;;;3.88;;
72949;SDS011;62720;45.710;9.590;2022-11-02T02:03:16;15.15;;;3.70;;
72949;SDS011;62720;45.710;9.590;2022-11-02T02:05:44;13.52;;;4.32;;
72949;SDS011;62720;45.710;9.590;2022-11-02T02:08:10;15.35;;;3.60;;
72949;SDS011;62720;45.710;9.590;2022-11-02T02:10:37;11.02;;;3.40;;
72949;SDS011;62720;45.710;9.590;2022-11-02T02:13:02;12.25;;;3.22;;
72949;SDS011;62720;45.710;9.590;2022-11-02T02:15:33;11.90;;;3.42;;
72949;SDS011;62720;45.710;9.590;2022-11-02T02:18:22;11.32;;;3.80;;
72949;SDS011;62720;45.710;9.590;2022-11-02T02:31:00;17.00;;;4.03;;
72949;SDS011;62720;45.710;9.590;2022-11-02T02:36:17;11.30;;;3.08;;
72949;SDS011;62720;45.710;9.590;2022-11-02T02:38:45;11.80;;;3.40;;
72949;SDS011;62720;45.710;9.590;2022-11-02T02:41:13;12.85;;;3.53;;
72949;SDS011;62720;45.710;9.590;2022-11-02T02:46:20;13.73;;;3.63;;
72949;SDS011;62720;45.710;9.590;2022-11-02T02:48:47;12.80;;;2.92;;
72949;SDS011;62720;45.710;9.590;2022-11-02T02:51:25;12.93;;;3.42;;
72949;SDS011;62720;45.710;9.590;2022-11-02T02:53:58;15.02;;;3.42;;
72949;SDS011;62720;45.710;9.590;2022-11-02T02:56:24;12.35;;;3.78;;
72949;SDS011;62720;45.710;9.590;2022-11-02T02:58:57;13.30;;;2.65;;
72949;SDS011;62720;45.710;9.590;2022-11-02T03:01:24;11.20;;;3.20;;
72949;SDS011;62720;45.710;9.590;2022-11-02T03:03:50;12.63;;;3.15;;
72949;SDS011;62720;45.710;9.590;2022-11-02T03:08:41;11.73;;;3.00;;
72949;SDS011;62720;45.710;9.590;2022-11-02T03:11:12;12.85;;;3.53;;
72949;SDS011;62720;45.710;9.590;2022-11-02T03:13:49;11.30;;;3.78;;
72949;SDS011;62720;45.710;9.590;2022-11-02T03:21:41;11.68;;;3.33;;
72949;SDS011;62720;45.710;9.590;2022-11-02T03:24:08;9.45;;;2.90;;
72949;SDS011;62720;45.710;9.590;2022-11-02T03:29:19;10.30;;;2.85;;
72949;SDS011;62720;45.710;9.590;2022-11-02T03:31:55;12.38;;;3.45;;
72949;SDS011;62720;45.710;9.590;2022-11-02T03:36:52;13.57;;;3.97;;
72949;SDS011;62720;45.710;9.590;2022-11-02T03:39:19;13.88;;;3.35;;
72949;SDS011;62720;45.710;9.590;2022-11-02T03:41:46;11.73;;;3.40;;
72949;SDS011;62720;45.710;9.590;2022-11-02T03:44:16;15.60;;;4.00;;
72949;SDS011;62720;45.710;9.590;2022-11-02T03:46:43;13.02;;;3.70;;
72949;SDS011;62720;45.710;9.590;2022-11-02T03:49:11;12.00;;;3.25;;
72949;SDS011;62720;45.710;9.590;2022-11-02T03:51:38;16.83;;;3.53;;
72949;SDS011;62720;45.710;9.590;2022-11-02T03:56:34;12.25;;;3.08;;
72949;SDS011;62720;45.710;9.590;2022-11-02T03:59:01;13.23;;;3.35;;
72949;SDS011;62720;45.710;9.590;2022-11-02T04:01:27;14.25;;;3.25;;
72949;SDS011;62720;45.710;9.590;2022-11-02T04:03:53;17.75;;;3.58;;
72949;SDS011;62720;45.710;9.590;2022-11-02T04:06:19;13.33;;;3.53;;
72949;SDS011;62720;45.710;9.590;2022-11-02T04:08:45;11.15;;;3.00;;
72949;SDS011;62720;45.710;9.590;2022-11-02T04:11:11;13.23;;;3.25;;
72949;SDS011;62720;45.710;9.590;2022-11-02T04:13:55;12.77;;;3.40;;
72949;SDS011;62720;45.710;9.590;2022-11-02T04:16:39;10.68;;;3.20;;
72949;SDS011;62720;45.710;9.590;2022-11-02T04:19:04;12.00;;;3.13;;
72949;SDS011;62720;45.710;9.590;2022-11-02T04:21:48;14.70;;;2.85;;
72949;SDS011;62720;45.710;9.590;2022-11-02T04:24:32;10.30;;;3.47;;
72949;SDS011;62720;45.710;9.590;2022-11-02T04:27:16;13.23;;;3.28;;
72949;SDS011;62720;45.710;9.590;2022-11-02T04:29:41;12.60;;;3.33;;
72949;SDS011;62720;45.710;9.590;2022-11-02T04:32:07;14.43;;;3.10;;
72949;SDS011;62720;45.710;9.590;2022-11-02T04:34:33;17.02;;;4.07;;
72949;SDS011;62720;45.710;9.590;2022-11-02T04:36:59;15.18;;;3.70;;
72949;SDS011;62720;45.710;9.590;2022-11-02T04:39:24;14.63;;;4.13;;
72949;SDS011;62720;45.710;9.590;2022-11-02T04:41:49;15.30;;;3.23;;
72949;SDS011;62720;45.710;9.590;2022-11-02T04:44:14;12.87;;;2.77;;
72949;SDS011;62720;45.710;9.590;2022-11-02T04:46:41;12.90;;;3.00;;
72949;SDS011;62720;45.710;9.590;2022-11-02T04:49:07;13.00;;;3.22;;
72949;SDS011;62720;45.710;9.590;2022-11-02T04:51:32;14.38;;;3.50;;
72949;SDS011;62720;45.710;9.590;2022-11-02T04:53:58;10.98;;;3.20;;
72949;SDS011;62720;45.710;9.590;2022-11-02T04:56:24;12.63;;;2.90;;
72949;SDS011;62720;45.710;9.590;2022-11-02T04:58:50;9.80;;;2.90;;
72949;SDS011;62720;45.710;9.590;2022-11-02T05:01:16;18.77;;;3.33;;
72949;SDS011;62720;45.710;9.590;2022-11-02T05:03:42;11.73;;;3.40;;
72949;SDS011;62720;45.710;9.590;2022-11-02T05:06:10;12.90;;;3.00;;
72949;SDS011;62720;45.710;9.590;2022-11-02T05:08:36;16.80;;;3.35;;
72949;SDS011;62720;45.710;9.590;2022-11-02T05:11:01;12.77;;;3.08;;
72949;SDS011;62720;45.710;9.590;2022-11-02T05:13:27;10.10;;;2.92;;
72949;SDS011;62720;45.710;9.590;2022-11-02T05:15:56;10.85;;;3.08;;
72949;SDS011;62720;45.710;9.590;2022-11-02T05:18:21;14.05;;;2.97;;
72949;SDS011;62720;45.710;9.590;2022-11-02T05:20:50;14.23;;;3.33;;
72949;SDS011;62720;45.710;9.590;2022-11-02T05:23:16;16.10;;;3.58;;
72949;SDS011;62720;45.710;9.590;2022-11-02T05:25:41;13.18;;;3.22;;
72949;SDS011;62720;45.710;9.590;2022-11-02T05:28:06;13.20;;;2.90;;
72949;SDS011;62720;45.710;9.590;2022-11-02T05:30:32;13.60;;;3.20;;
72949;SDS011;62720;45.710;9.590;2022-11-02T05:32:57;14.53;;;3.73;;
72949;SDS011;62720;45.710;9.590;2022-11-02T05:35:22;11.87;;;2.77;;
72949;SDS011;62720;45.710;9.590;2022-11-02T05:37:47;16.55;;;4.10;;
72949;SDS011;62720;45.710;9.590;2022-11-02T05:40:13;15.57;;;2.80;;
72949;SDS011;62720;45.710;9.590;2022-11-02T05:42:38;12.32;;;3.08;;
72949;SDS011;62720;45.710;9.590;2022-11-02T05:45:03;10.43;;;3.47;;
72949;SDS011;62720;45.710;9.590;2022-11-02T05:47:29;13.88;;;3.47;;
72949;SDS011;62720;45.710;9.590;2022-11-02T05:49:54;16.43;;;3.50;;
72949;SDS011;62720;45.710;9.590;2022-11-02T05:52:19;13.83;;;3.40;;
72949;SDS011;62720;45.710;9.590;2022-11-02T05:54:45;17.75;;;3.47;;
72949;SDS011;62720;45.710;9.590;2022-11-02T05:57:10;26.45;;;4.07;;
72949;SDS011;62720;45.710;9.590;2022-11-02T05:59:35;13.63;;;3.90;;
72949;SDS011;62720;45.710;9.590;2022-11-02T06:02:00;14.57;;;3.10;;
72949;SDS011;62720;45.710;9.590;2022-11-02T06:04:26;13.10;;;2.90;;
72949;SDS011;62720;45.710;9.590;2022-11-02T06:06:51;18.88;;;3.20;;
72949;SDS011;62720;45.710;9.590;2022-11-02T06:09:16;14.73;;;3.78;;
72949;SDS011;62720;45.710;9.590;2022-11-02T06:11:41;19.65;;;3.22;;
72949;SDS011;62720;45.710;9.590;2022-11-02T06:14:07;12.52;;;3.35;;
72949;SDS011;62720;45.710;9.590;2022-11-02T06:16:32;14.13;;;2.80;;
72949;SDS011;62720;45.710;9.590;2022-11-02T06:18:57;11.95;;;2.70;;
72949;SDS011;62720;45.710;9.590;2022-11-02T06:21:22;15.55;;;3.15;;
72949;SDS011;62720;45.710;9.590;2022-11-02T06:23:48;15.02;;;3.28;;
72949;SDS011;62720;45.710;9.590;2022-11-02T06:26:13;10.68;;;3.00;;
72949;SDS011;62720;45.710;9.590;2022-11-02T06:28:39;13.23;;;2.88;;
72949;SDS011;62720;45.710;9.590;2022-11-02T06:31:04;14.02;;;3.35;;
72949;SDS011;62720;45.710;9.590;2022-11-02T06:33:30;13.90;;;2.95;;
72949;SDS011;62720;45.710;9.590;2022-11-02T06:35:55;13.50;;;3.23;;
72949;SDS011;62720;45.710;9.590;2022-11-02T06:38:20;10.85;;;3.17;;
72949;SDS011;62720;45.710;9.590;2022-11-02T06:40:52;13.23;;;3.50;;
72949;SDS011;62720;45.710;9.590;2022-11-02T06:43:17;15.05;;;3.10;;
72949;SDS011;62720;45.710;9.590;2022-11-02T06:45:43;12.60;;;3.40;;
72949;SDS011;62720;45.710;9.590;2022-11-02T06:48:08;10.45;;;3.00;;
72949;SDS011;62720;45.710;9.590;2022-11-02T06:50:33;16.70;;;3.65;;
72949;SDS011;62720;45.710;9.590;2022-11-02T06:52:59;12.80;;;2.72;;
72949;SDS011;62720;45.710;9.590;2022-11-02T06:55:24;13.37;;;3.00;;
72949;SDS011;62720;45.710;9.590;2022-11-02T06:57:49;12.95;;;2.80;;
72949;SDS011;62720;45.710;9.590;2022-11-02T07:00:15;14.02;;;3.10;;
72949;SDS011;62720;45.710;9.590;2022-11-02T07:02:43;14.00;;;3.58;;
72949;SDS011;62720;45.710;9.590;2022-11-02T07:05:09;12.45;;;2.55;;
72949;SDS011;62720;45.710;9.590;2022-11-02T07:07:34;14.93;;;2.88;;
72949;SDS011;62720;45.710;9.590;2022-11-02T07:09:59;18.17;;;3.73;;
72949;SDS011;62720;45.710;9.590;2022-11-02T07:12:24;11.67;;;3.20;;
72949;SDS011;62720;45.710;9.590;2022-11-02T07:14:50;15.83;;;3.53;;
72949;SDS011;62720;45.710;9.590;2022-11-02T07:17:15;12.73;;;3.28;;
72949;SDS011;62720;45.710;9.590;2022-11-02T07:19:40;13.40;;;3.05;;
72949;SDS011;62720;45.710;9.590;2022-11-02T07:22:06;15.17;;;3.20;;
72949;SDS011;62720;45.710;9.590;2022-11-02T07:24:34;17.80;;;3.45;;
72949;SDS011;62720;45.710;9.590;2022-11-02T07:26:59;15.30;;;3.13;;
72949;SDS011;62720;45.710;9.590;2022-11-02T07:29:24;13.50;;;2.70;;
72949;SDS011;62720;45.710;9.590;2022-11-02T07:31:50;12.07;;;3.17;;
72949;SDS011;62720;45.710;9.590;2022-11-02T07:34:15;14.38;;;3.03;;
72949;SDS011;62720;45.710;9.590;2022-11-02T07:36:40;10.35;;;2.65;;
72949;SDS011;62720;45.710;9.590;2022-11-02T07:39:06;13.52;;;3.20;;
72949;SDS011;62720;45.710;9.590;2022-11-02T07:41:32;18.75;;;4.15;;
72949;SDS011;62720;45.710;9.590;2022-11-02T07:43:57;25.73;;;3.50;;
72949;SDS011;62720;45.710;9.590;2022-11-02T07:46:22;14.82;;;3.10;;
72949;SDS011;62720;45.710;9.590;2022-11-02T07:48:47;17.07;;;2.90;;
72949;SDS011;62720;45.710;9.590;2022-11-02T07:51:13;13.17;;;2.50;;
72949;SDS011;62720;45.710;9.590;2022-11-02T07:53:38;18.15;;;3.25;;
72949;SDS011;62720;45.710;9.590;2022-11-02T07:56:03;15.70;;;2.75;;
72949;SDS011;62720;45.710;9.590;2022-11-02T07:58:29;15.60;;;3.10;;
72949;SDS011;62720;45.710;9.590;2022-11-02T08:00:56;11.05;;;2.75;;
72949;SDS011;62720;45.710;9.590;2022-11-02T08:03:21;10.63;;;2.92;;
72949;SDS011;62720;45.710;9.590;2022-11-02T08:05:46;14.03;;;3.37;;
72949;SDS011;62720;45.710;9.590;2022-11-02T08:08:13;14.25;;;2.97;;
72949;SDS011;62720;45.710;9.590;2022-11-02T08:10:39;13.23;;;2.90;;
72949;SDS011;62720;45.710;9.590;2022-11-02T08:13:04;14.50;;;3.83;;
72949;SDS011;62720;45.710;9.590;2022-11-02T08:15:30;13.27;;;2.83;;
72949;SDS011;62720;45.710;9.590;2022-11-02T08:18:05;18.20;;;4.00;;
72949;SDS011;62720;45.710;9.590;2022-11-02T08:20:32;12.43;;;2.97;;
72949;SDS011;62720;45.710;9.590;2022-11-02T08:23:02;13.30;;;3.33;;
72949;SDS011;62720;45.710;9.590;2022-11-02T08:25:28;18.63;;;3.35;;
72949;SDS011;62720;45.710;9.590;2022-11-02T08:27:57;12.38;;;2.97;;
72949;SDS011;62720;45.710;9.590;2022-11-02T08:30:23;14.48;;;2.95;;
72949;SDS011;62720;45.710;9.590;2022-11-02T08:32:48;12.02;;;3.38;;
72949;SDS011;62720;45.710;9.590;2022-11-02T08:35:13;14.68;;;3.22;;
72949;SDS011;62720;45.710;9.590;2022-11-02T08:37:39;14.35;;;3.15;;
72949;SDS011;62720;45.710;9.590;2022-11-02T08:40:04;11.15;;;3.47;;
72949;SDS011;62720;45.710;9.590;2022-11-02T08:42:29;13.75;;;3.22;;
72949;SDS011;62720;45.710;9.590;2022-11-02T08:44:55;10.38;;;2.80;;
72949;SDS011;62720;45.710;9.590;2022-11-02T08:47:20;10.32;;;2.80;;
72949;SDS011;62720;45.710;9.590;2022-11-02T08:49:46;12.00;;;2.90;;
72949;SDS011;62720;45.710;9.590;2022-11-02T08:52:12;14.63;;;3.15;;
72949;SDS011;62720;45.710;9.590;2022-11-02T08:54:37;13.43;;;3.23;;
72949;SDS011;62720;45.710;9.590;2022-11-02T08:57:02;12.50;;;3.22;;
72949;SDS011;62720;45.710;9.590;2022-11-02T08:59:27;12.83;;;3.07;;
72949;SDS011;62720;45.710;9.590;2022-11-02T09:01:53;12.95;;;3.38;;
72949;SDS011;62720;45.710;9.590;2022-11-02T09:04:18;12.27;;;3.00;;
72949;SDS011;62720;45.710;9.590;2022-11-02T09:06:43;15.03;;;2.97;;
72949;SDS011;62720;45.710;9.590;2022-11-02T09:09:08;12.70;;;2.83;;
72949;SDS011;62720;45.710;9.590;2022-11-02T09:11:34;13.50;;;3.20;;
72949;SDS011;62720;45.710;9.590;2022-11-02T09:13:59;12.95;;;3.25;;
72949;SDS011;62720;45.710;9.590;2022-11-02T09:16:24;14.95;;;3.40;;
72949;SDS011;62720;45.710;9.590;2022-11-02T09:18:49;13.47;;;3.70;;
72949;SDS011;62720;45.710;9.590;2022-11-02T09:21:15;15.60;;;3.53;;
72949;SDS011;62720;45.710;9.590;2022-11-02T09:23:41;14.80;;;2.63;;
72949;SDS011;62720;45.710;9.590;2022-11-02T09:26:06;16.15;;;3.05;;
72949;SDS011;62720;45.710;9.590;2022-11-02T09:28:31;11.93;;;3.03;;
72949;SDS011;62720;45.710;9.590;2022-11-02T09:30:57;12.88;;;3.00;;
72949;SDS011;62720;45.710;9.590;2022-11-02T09:33:22;14.80;;;3.80;;
72949;SDS011;62720;45.710;9.590;2022-11-02T09:35:47;14.10;;;3.22;;
72949;SDS011;62720;45.710;9.590;2022-11-02T09:38:14;14.25;;;3.20;;
72949;SDS011;62720;45.710;9.590;2022-11-02T09:45:56;15.10;;;3.90;;
72949;SDS011;62720;45.710;9.590;2022-11-02T10:03:34;14.07;;;2.40;;
72949;SDS011;62720;45.710;9.590;2022-11-02T10:06:04;15.20;;;2.65;;
72949;SDS011;62720;45.710;9.590;2022-11-02T10:08:44;11.13;;;2.70;;
72949;SDS011;62720;45.710;9.590;2022-11-02T10:13:50;18.67;;;3.35;;
72949;SDS011;62720;45.710;9.590;2022-11-02T10:18:54;14.35;;;2.80;;
72949;SDS011;62720;45.710;9.590;2022-11-02T10:24:12;11.07;;;2.75;;
72949;SDS011;62720;45.710;9.590;2022-11-02T10:26:40;15.07;;;3.40;;
72949;SDS011;62720;45.710;9.590;2022-11-02T10:29:13;12.68;;;3.00;;
72949;SDS011;62720;45.710;9.590;2022-11-02T10:31:40;9.00;;;3.05;;
72949;SDS011;64868;45.710;9.590;2022-11-02T10:42:14;10.98;;;3.00;;
72949;SDS011;64868;45.710;9.590;2022-11-02T10:51:53;12.98;;;3.50;;
72949;SDS011;64868;45.710;9.590;2022-11-02T10:54:18;12.85;;;3.00;;
72949;SDS011;64868;45.710;9.590;2022-11-02T10:56:44;11.93;;;3.40;;
72949;SDS011;64868;45.710;9.590;2022-11-02T11:01:46;13.57;;;3.58;;
72949;SDS011;64868;45.710;9.590;2022-11-02T11:04:30;14.23;;;3.63;;
72949;SDS011;64868;45.710;9.590;2022-11-02T11:06:56;17.33;;;4.03;;
72949;SDS011;64868;45.710;9.590;2022-11-02T11:09:25;16.83;;;3.80;;
72949;SDS011;64868;45.710;9.590;2022-11-02T11:11:55;17.45;;;4.35;;
72949;SDS011;64868;45.710;9.590;2022-11-02T11:14:20;16.50;;;3.47;;
72949;SDS011;64868;45.710;9.590;2022-11-02T11:19:15;14.07;;;3.13;;
72949;SDS011;64868;45.710;9.590;2022-11-02T11:21:42;12.40;;;3.13;;
72949;SDS011;64868;45.710;9.590;2022-11-02T11:26:42;13.45;;;3.13;;
72949;SDS011;64868;45.710;9.590;2022-11-02T11:29:14;12.97;;;3.27;;
72949;SDS011;64868;45.710;9.590;2022-11-02T11:31:44;14.32;;;3.40;;
72949;SDS011;64868;45.710;9.590;2022-11-02T11:34:18;12.68;;;3.75;;
72949;SDS011;64868;45.710;9.590;2022-11-02T11:36:46;14.60;;;3.92;;
72949;SDS011;64868;45.710;9.590;2022-11-02T11:39:22;13.90;;;3.40;;
72949;SDS011;64868;45.710;9.590;2022-11-02T11:41:48;14.18;;;3.33;;
72949;SDS011;64868;45.710;9.590;2022-11-02T11:44:13;13.00;;;4.05;;
72949;SDS011;64868;45.710;9.590;2022-11-02T11:46:43;17.10;;;4.80;;
72949;SDS011;64868;45.710;9.590;2022-11-02T11:49:23;13.80;;;4.28;;
72949;SDS011;64868;45.710;9.590;2022-11-02T11:51:49;15.25;;;4.75;;
72949;SDS011;64868;45.710;9.590;2022-11-02T11:56:44;17.52;;;6.13;;
72949;SDS011;64868;45.710;9.590;2022-11-02T11:59:23;26.50;;;7.57;;
72949;SDS011;64868;45.710;9.590;2022-11-02T12:01:50;22.77;;;7.13;;
72949;SDS011;64868;45.710;9.590;2022-11-02T12:04:30;19.38;;;7.55;;
72949;SDS011;64868;45.710;9.590;2022-11-02T12:07:05;16.00;;;7.63;;
72949;SDS011;64868;45.710;9.590;2022-11-02T12:24:45;17.85;;;6.60;;
72949;SDS011;64868;45.710;9.590;2022-11-02T12:32:29;18.33;;;6.73;;
72949;SDS011;64868;45.710;9.590;2022-11-02T12:40:01;19.92;;;7.95;;
72949;SDS011;64868;45.710;9.590;2022-11-02T12:42:34;23.27;;;7.25;;
72949;SDS011;64868;45.710;9.590;2022-11-02T12:47:49;19.08;;;7.28;;
72949;SDS011;64868;45.710;9.590;2022-11-02T12:53:11;20.38;;;6.90;;
72949;SDS011;64868;45.710;9.590;2022-11-02T12:55:45;18.38;;;6.25;;
72949;SDS011;64868;45.710;9.590;2022-11-02T12:58:20;15.50;;;6.15;;
72949;SDS011;64868;45.710;9.590;2022-11-02T13:00:46;15.80;;;5.88;;
72949;SDS011;64868;45.710;9.590;2022-11-02T13:05:58;18.23;;;6.55;;
72949;SDS011;64868;45.710;9.590;2022-11-02T13:08:34;17.67;;;6.97;;
72949;SDS011;64868;45.710;9.590;2022-11-02T13:11:02;20.35;;;7.35;;
72949;SDS011;64868;45.710;9.590;2022-11-02T13:13:34;19.05;;;7.60;;
72949;SDS011;64868;45.710;9.590;2022-11-02T13:16:01;26.52;;;7.53;;
72949;SDS011;64868;45.710;9.590;2022-11-02T13:18:39;19.75;;;6.72;;
72949;SDS011;64868;45.710;9.590;2022-11-02T13:21:05;13.63;;;6.38;;
72949;SDS011;64868;45.710;9.590;2022-11-02T13:23:36;16.17;;;6.63;;
72949;SDS011;64868;45.710;9.590;2022-11-02T13:26:46;15.55;;;6.18;;
72949;SDS011;64868;45.710;9.590;2022-11-02T13:28:53;20.75;;;9.05;;
72949;SDS011;64868;45.710;9.590;2022-11-02T13:33:52;15.85;;;6.65;;
72949;SDS011;64868;45.710;9.590;2022-11-02T13:36:18;16.40;;;7.32;;
72949;SDS011;64868;45.710;9.590;2022-11-02T13:38:46;19.38;;;7.72;;
72949;SDS011;64868;45.710;9.590;2022-11-02T13:44:03;16.23;;;6.15;;
72949;SDS011;64868;45.710;9.590;2022-11-02T13:49:00;16.48;;;5.65;;
72949;SDS011;64868;45.710;9.590;2022-11-02T13:51:30;16.50;;;6.63;;
72949;SDS011;64868;45.710;9.590;2022-11-02T13:54:43;15.77;;;6.03;;
72949;SDS011;64868;45.710;9.590;2022-11-02T13:56:41;15.07;;;6.72;;
72949;SDS011;64868;45.710;9.590;2022-11-02T13:59:08;17.65;;;7.97;;
72949;SDS011;64868;45.710;9.590;2022-11-02T14:01:36;15.95;;;7.88;;
72949;SDS011;64868;45.710;9.590;2022-11-02T14:04:09;13.73;;;7.47;;
72949;SDS011;64868;45.710;9.590;2022-11-02T14:09:09;21.73;;;8.02;;
72949;SDS011;64868;45.710;9.590;2022-11-02T14:11:45;19.38;;;8.05;;
72949;SDS011;64868;45.710;9.590;2022-11-02T14:27:00;20.00;;;8.00;;
72949;SDS011;64868;45.710;9.590;2022-11-02T14:34:36;19.00;;;7.97;;
72949;SDS011;64868;45.710;9.590;2022-11-02T14:37:28;18.85;;;8.45;;
72949;SDS011;64868;45.710;9.590;2022-11-02T14:42:57;19.60;;;8.40;;
72949;SDS011;64868;45.710;9.590;2022-11-02T14:45:28;22.90;;;8.27;;
72949;SDS011;64868;45.710;9.590;2022-11-02T14:47:57;18.52;;;9.63;;
72949;SDS011;64868;45.710;9.590;2022-11-02T14:50:23;17.15;;;7.55;;
72949;SDS011;64868;45.710;9.590;2022-11-02T14:52:53;18.58;;;8.60;;
72949;SDS011;64868;45.710;9.590;2022-11-02T14:55:29;22.50;;;9.13;;
72949;SDS011;64868;45.710;9.590;2022-11-02T14:57:57;22.08;;;8.43;;
72949;SDS011;64868;45.710;9.590;2022-11-02T15:00:25;22.88;;;8.93;;
72949;SDS011;64868;45.710;9.590;2022-11-02T15:02:52;20.83;;;8.60;;
72949;SDS011;64868;45.710;9.590;2022-11-02T15:07:56;21.42;;;9.80;;
72949;SDS011;64868;45.710;9.590;2022-11-02T15:15:38;20.42;;;8.90;;
72949;SDS011;64868;45.710;9.590;2022-11-02T15:18:49;24.85;;;9.10;;
72949;SDS011;64868;45.710;9.590;2022-11-02T15:21:35;26.52;;;7.63;;
72949;SDS011;64868;45.710;9.590;2022-11-02T15:28:54;15.80;;;8.43;;
72949;SDS011;64868;45.710;9.590;2022-11-02T15:31:21;24.17;;;9.45;;
72949;SDS011;64868;45.710;9.590;2022-11-02T15:33:48;23.35;;;9.10;;
72949;SDS011;64868;45.710;9.590;2022-11-02T15:36:16;19.42;;;8.85;;
72949;SDS011;64868;45.710;9.590;2022-11-02T15:38:45;17.73;;;9.65;;
72949;SDS011;64868;45.710;9.590;2022-11-02T15:49:25;19.67;;;9.07;;
72949;SDS011;64868;45.710;9.590;2022-11-02T15:54:37;19.83;;;9.75;;
72949;SDS011;64868;45.710;9.590;2022-11-02T16:02:26;17.67;;;8.55;;
72949;SDS011;64868;45.710;9.590;2022-11-02T16:04:59;17.90;;;8.68;;
72949;SDS011;64868;45.710;9.590;2022-11-02T16:07:24;19.50;;;9.02;;
72949;SDS011;64868;45.710;9.590;2022-11-02T16:09:50;20.63;;;9.35;;
72949;SDS011;64868;45.710;9.590;2022-11-02T16:12:17;20.00;;;9.60;;
72949;SDS011;64868;45.710;9.590;2022-11-02T16:14:43;17.83;;;10.10;;
72949;SDS011;64868;45.710;9.590;2022-11-02T16:20:08;19.63;;;10.40;;
72949;SDS011;64868;45.710;9.590;2022-11-02T16:22:33;21.88;;;11.07;;
72949;SDS011;64868;45.710;9.590;2022-11-02T16:25:05;21.13;;;10.30;;
72949;SDS011;64868;45.710;9.590;2022-11-02T16:27:34;21.73;;;9.40;;
72949;SDS011;64868;45.710;9.590;2022-11-02T16:30:00;24.85;;;10.90;;
72949;SDS011;64868;45.710;9.590;2022-11-02T16:32:25;18.30;;;9.38;;
72949;SDS011;64868;45.710;9.590;2022-11-02T16:34:50;18.65;;;9.88;;
72949;SDS011;64868;45.710;9.590;2022-11-02T16:37:16;18.83;;;10.75;;
72949;SDS011;64868;45.710;9.590;2022-11-02T16:39:44;19.63;;;9.10;;
72949;SDS011;64868;45.710;9.590;2022-11-02T16:42:22;17.48;;;7.65;;
72949;SDS011;64868;45.710;9.590;2022-11-02T16:44:52;15.50;;;7.95;;
72949;SDS011;64868;45.710;9.590;2022-11-02T16:47:20;15.65;;;7.40;;
72949;SDS011;64868;45.710;9.590;2022-11-02T16:52:20;18.70;;;10.20;;
72949;SDS011;64868;45.710;9.590;2022-11-02T16:54:46;16.70;;;8.68;;
72949;SDS011;64868;45.710;9.590;2022-11-02T16:59:37;15.57;;;7.80;;
72949;SDS011;64868;45.710;9.590;2022-11-02T17:02:02;14.77;;;7.97;;
72949;SDS011;64868;45.710;9.590;2022-11-02T17:04:28;17.77;;;9.20;;
72949;SDS011;64868;45.710;9.590;2022-11-02T17:06:55;16.70;;;7.57;;
72949;SDS011;64868;45.710;9.590;2022-11-02T17:09:30;15.68;;;7.43;;
72949;SDS011;64868;45.710;9.590;2022-11-02T17:11:57;15.65;;;7.60;;
72949;SDS011;64868;45.710;9.590;2022-11-02T17:14:23;24.40;;;9.23;;
72949;SDS011;64868;45.710;9.590;2022-11-02T17:24:36;17.92;;;10.27;;
72949;SDS011;64868;45.710;9.590;2022-11-02T17:27:26;22.15;;;10.65;;
72949;SDS011;64868;45.710;9.590;2022-11-02T17:29:52;22.40;;;10.85;;
72949;SDS011;64868;45.710;9.590;2022-11-02T17:32:20;16.65;;;8.77;;
72949;SDS011;64868;45.710;9.590;2022-11-02T17:34:49;21.60;;;10.68;;
72949;SDS011;64868;45.710;9.590;2022-11-02T17:37:25;15.40;;;8.48;;
72949;SDS011;64868;45.710;9.590;2022-11-02T17:39:51;16.30;;;8.75;;
72949;SDS011;64868;45.710;9.590;2022-11-02T17:42:17;13.68;;;8.10;;
72949;SDS011;64868;45.710;9.590;2022-11-02T17:47:44;20.88;;;9.48;;
72949;SDS011;64868;45.710;9.590;2022-11-02T17:50:10;19.30;;;9.50;;
72949;SDS011;64868;45.710;9.590;2022-11-02T17:52:35;21.20;;;10.97;;
72949;SDS011;64868;45.710;9.590;2022-11-02T17:55:00;23.05;;;11.00;;